sensor_id;sensor_type;location;lat;lon;timestamp;temperature;humidity
9393;DHT22;4736;52.508;13.422;2024-01-30T00:00:49;3.40;64.40
9393;DHT22;4736;52.508;13.422;2024-01-30T00:03:52;3.40;64.40
9393;DHT22;4736;52.508;13.422;2024-01-30T00:06:55;3.30;64.50
9393;DHT22;4736;52.508;13.422;2024-01-30T00:09:59;3.30;64.70
9393;DHT22;4736;52.508;13.422;2024-01-30T00:13:02;3.30;64.60
9393;DHT22;4736;52.508;13.422;2024-01-30T00:16:07;3.20;64.80
9393;DHT22;4736;52.508;13.422;2024-01-30T00:19:11;3.30;64.50
9393;DHT22;4736;52.508;13.422;2024-01-30T00:22:14;3.30;64.60
9393;DHT22;4736;52.508;13.422;2024-01-30T00:25:17;3.20;64.70
9393;DHT22;4736;52.508;13.422;2024-01-30T00:28:21;3.20;64.70
9393;DHT22;4736;52.508;13.422;2024-01-30T00:31:25;3.10;64.80
9393;DHT22;4736;52.508;13.422;2024-01-30T00:34:29;3.20;64.80
9393;DHT22;4736;52.508;13.422;2024-01-30T00:37:32;3.20;64.80
9393;DHT22;4736;52.508;13.422;2024-01-30T00:40:35;3.20;64.80
9393;DHT22;4736;52.508;13.422;2024-01-30T00:43:38;3.10;65.10
9393;DHT22;4736;52.508;13.422;2024-01-30T00:46:43;3.10;65.30
9393;DHT22;4736;52.508;13.422;2024-01-30T00:49:46;3.00;65.40
9393;DHT22;4736;52.508;13.422;2024-01-30T00:52:49;3.00;65.60
9393;DHT22;4736;52.508;13.422;2024-01-30T00:55:52;2.90;65.80
9393;DHT22;4736;52.508;13.422;2024-01-30T00:58:56;2.80;66.10
9393;DHT22;4736;52.508;13.422;2024-01-30T01:02:00;2.80;66.20
9393;DHT22;4736;52.508;13.422;2024-01-30T01:05:04;2.70;66.20
9393;DHT22;4736;52.508;13.422;2024-01-30T01:08:07;2.70;66.20
9393;DHT22;4736;52.508;13.422;2024-01-30T01:11:11;2.70;66.40
9393;DHT22;4736;52.508;13.422;2024-01-30T01:14:14;2.70;66.50
9393;DHT22;4736;52.508;13.422;2024-01-30T01:17:18;2.60;66.70
9393;DHT22;4736;52.508;13.422;2024-01-30T01:20:22;2.50;66.60
9393;DHT22;4736;52.508;13.422;2024-01-30T01:23:25;2.50;66.60
9393;DHT22;4736;52.508;13.422;2024-01-30T01:26:28;2.50;66.60
9393;DHT22;4736;52.508;13.422;2024-01-30T01:29:31;2.50;66.80
9393;DHT22;4736;52.508;13.422;2024-01-30T01:32:36;2.40;66.90
9393;DHT22;4736;52.508;13.422;2024-01-30T01:35:40;2.40;66.90
9393;DHT22;4736;52.508;13.422;2024-01-30T01:38:43;2.40;67.00
9393;DHT22;4736;52.508;13.422;2024-01-30T01:41:47;2.30;67.00
9393;DHT22;4736;52.508;13.422;2024-01-30T01:44:50;2.20;67.10
9393;DHT22;4736;52.508;13.422;2024-01-30T01:47:55;2.20;67.20
9393;DHT22;4736;52.508;13.422;2024-01-30T01:50:59;2.10;67.30
9393;DHT22;4736;52.508;13.422;2024-01-30T01:54:04;2.10;67.40
9393;DHT22;4736;52.508;13.422;2024-01-30T01:57:07;2.10;67.50
9393;DHT22;4736;52.508;13.422;2024-01-30T02:00:12;2.10;67.50
9393;DHT22;4736;52.508;13.422;2024-01-30T02:03:18;2.00;67.60
9393;DHT22;4736;52.508;13.422;2024-01-30T02:06:23;2.00;67.70
9393;DHT22;4736;52.508;13.422;2024-01-30T02:09:27;1.90;67.80
9393;DHT22;4736;52.508;13.422;2024-01-30T02:12:30;1.90;68.00
9393;DHT22;4736;52.508;13.422;2024-01-30T02:15:33;1.90;68.00
9393;DHT22;4736;52.508;13.422;2024-01-30T02:18:38;1.90;67.90
9393;DHT22;4736;52.508;13.422;2024-01-30T02:21:46;1.90;68.00
9393;DHT22;4736;52.508;13.422;2024-01-30T02:24:49;1.90;68.00
9393;DHT22;4736;52.508;13.422;2024-01-30T02:27:53;1.90;68.20
9393;DHT22;4736;52.508;13.422;2024-01-30T02:30:56;1.90;68.20
9393;DHT22;4736;52.508;13.422;2024-01-30T02:34:01;1.90;68.20
9393;DHT22;4736;52.508;13.422;2024-01-30T02:37:05;1.90;68.30
9393;DHT22;4736;52.508;13.422;2024-01-30T02:40:09;1.80;68.40
9393;DHT22;4736;52.508;13.422;2024-01-30T02:43:12;1.80;68.30
9393;DHT22;4736;52.508;13.422;2024-01-30T02:46:15;1.80;68.40
9393;DHT22;4736;52.508;13.422;2024-01-30T02:49:19;1.80;68.30
9393;DHT22;4736;52.508;13.422;2024-01-30T02:52:23;1.80;68.40
9393;DHT22;4736;52.508;13.422;2024-01-30T02:55:27;1.80;68.40
9393;DHT22;4736;52.508;13.422;2024-01-30T02:58:30;1.80;68.50
9393;DHT22;4736;52.508;13.422;2024-01-30T03:01:33;1.80;68.50
9393;DHT22;4736;52.508;13.422;2024-01-30T03:04:44;1.80;68.60
9393;DHT22;4736;52.508;13.422;2024-01-30T03:07:49;1.80;68.70
9393;DHT22;4736;52.508;13.422;2024-01-30T03:10:53;1.80;68.70
9393;DHT22;4736;52.508;13.422;2024-01-30T03:13:56;1.80;68.80
9393;DHT22;4736;52.508;13.422;2024-01-30T03:16:59;1.80;68.90
9393;DHT22;4736;52.508;13.422;2024-01-30T03:20:03;1.80;68.90
9393;DHT22;4736;52.508;13.422;2024-01-30T03:23:09;1.80;69.00
9393;DHT22;4736;52.508;13.422;2024-01-30T03:26:12;1.70;69.00
9393;DHT22;4736;52.508;13.422;2024-01-30T03:29:17;1.80;69.10
9393;DHT22;4736;52.508;13.422;2024-01-30T03:32:20;1.70;69.20
9393;DHT22;4736;52.508;13.422;2024-01-30T03:35:24;1.70;69.50
9393;DHT22;4736;52.508;13.422;2024-01-30T03:38:28;1.80;69.40
9393;DHT22;4736;52.508;13.422;2024-01-30T03:41:31;1.80;69.40
9393;DHT22;4736;52.508;13.422;2024-01-30T03:44:35;1.70;69.40
9393;DHT22;4736;52.508;13.422;2024-01-30T03:47:38;1.80;69.40
9393;DHT22;4736;52.508;13.422;2024-01-30T03:50:42;1.70;69.40
9393;DHT22;4736;52.508;13.422;2024-01-30T03:53:47;1.70;69.80
9393;DHT22;4736;52.508;13.422;2024-01-30T03:56:50;1.70;69.70
9393;DHT22;4736;52.508;13.422;2024-01-30T03:59:53;1.70;69.70
9393;DHT22;4736;52.508;13.422;2024-01-30T04:02:56;1.70;69.70
9393;DHT22;4736;52.508;13.422;2024-01-30T04:05:59;1.70;69.90
9393;DHT22;4736;52.508;13.422;2024-01-30T04:09:04;1.70;69.90
9393;DHT22;4736;52.508;13.422;2024-01-30T04:12:07;1.70;70.00
9393;DHT22;4736;52.508;13.422;2024-01-30T04:15:11;1.70;70.30
9393;DHT22;4736;52.508;13.422;2024-01-30T04:18:15;1.80;70.30
9393;DHT22;4736;52.508;13.422;2024-01-30T04:21:20;2.00;69.90
9393;DHT22;4736;52.508;13.422;2024-01-30T04:24:25;2.00;69.80
9393;DHT22;4736;52.508;13.422;2024-01-30T04:27:28;2.10;69.50
9393;DHT22;4736;52.508;13.422;2024-01-30T04:30:31;2.00;69.60
9393;DHT22;4736;52.508;13.422;2024-01-30T04:33:34;2.00;69.70
9393;DHT22;4736;52.508;13.422;2024-01-30T04:36:38;2.00;69.80
9393;DHT22;4736;52.508;13.422;2024-01-30T04:39:42;1.90;69.70
9393;DHT22;4736;52.508;13.422;2024-01-30T04:42:45;1.90;69.90
9393;DHT22;4736;52.508;13.422;2024-01-30T04:45:49;1.90;69.90
9393;DHT22;4736;52.508;13.422;2024-01-30T04:48:52;1.90;69.80
9393;DHT22;4736;52.508;13.422;2024-01-30T04:51:56;1.90;69.80
9393;DHT22;4736;52.508;13.422;2024-01-30T04:55:01;2.00;69.90
9393;DHT22;4736;52.508;13.422;2024-01-30T04:58:04;2.00;69.80
9393;DHT22;4736;52.508;13.422;2024-01-30T05:01:07;2.10;69.50
9393;DHT22;4736;52.508;13.422;2024-01-30T05:04:10;2.10;69.80
9393;DHT22;4736;52.508;13.422;2024-01-30T05:07:18;2.10;69.60
9393;DHT22;4736;52.508;13.422;2024-01-30T05:10:23;2.10;69.60
9393;DHT22;4736;52.508;13.422;2024-01-30T05:13:26;2.10;69.60
9393;DHT22;4736;52.508;13.422;2024-01-30T05:16:30;2.10;69.60
9393;DHT22;4736;52.508;13.422;2024-01-30T05:19:33;2.20;69.60
9393;DHT22;4736;52.508;13.422;2024-01-30T05:22:36;2.20;69.20
9393;DHT22;4736;52.508;13.422;2024-01-30T05:25:41;2.30;69.00
9393;DHT22;4736;52.508;13.422;2024-01-30T05:28:44;2.30;68.90
9393;DHT22;4736;52.508;13.422;2024-01-30T05:31:47;2.30;68.80
9393;DHT22;4736;52.508;13.422;2024-01-30T05:34:50;2.30;68.80
9393;DHT22;4736;52.508;13.422;2024-01-30T05:37:54;2.30;69.00
9393;DHT22;4736;52.508;13.422;2024-01-30T05:40:58;2.30;68.80
9393;DHT22;4736;52.508;13.422;2024-01-30T05:44:02;2.20;69.00
9393;DHT22;4736;52.508;13.422;2024-01-30T05:47:05;2.30;68.90
9393;DHT22;4736;52.508;13.422;2024-01-30T05:50:08;2.40;68.90
9393;DHT22;4736;52.508;13.422;2024-01-30T05:53:11;2.30;68.70
9393;DHT22;4736;52.508;13.422;2024-01-30T05:56:17;2.40;68.60
9393;DHT22;4736;52.508;13.422;2024-01-30T05:59:20;2.40;68.70
9393;DHT22;4736;52.508;13.422;2024-01-30T06:02:23;2.30;68.80
9393;DHT22;4736;52.508;13.422;2024-01-30T06:05:27;2.40;68.90
9393;DHT22;4736;52.508;13.422;2024-01-30T06:08:30;2.40;68.70
9393;DHT22;4736;52.508;13.422;2024-01-30T06:11:35;2.30;68.80
9393;DHT22;4736;52.508;13.422;2024-01-30T06:14:38;2.30;68.90
9393;DHT22;4736;52.508;13.422;2024-01-30T06:17:43;2.20;69.10
9393;DHT22;4736;52.508;13.422;2024-01-30T06:20:46;2.20;69.20
9393;DHT22;4736;52.508;13.422;2024-01-30T06:23:49;2.20;69.30
9393;DHT22;4736;52.508;13.422;2024-01-30T06:26:54;2.20;69.50
9393;DHT22;4736;52.508;13.422;2024-01-30T06:29:57;2.30;69.30
9393;DHT22;4736;52.508;13.422;2024-01-30T06:33:00;2.20;69.40
9393;DHT22;4736;52.508;13.422;2024-01-30T06:36:04;2.20;69.40
9393;DHT22;4736;52.508;13.422;2024-01-30T06:39:09;2.10;69.50
9393;DHT22;4736;52.508;13.422;2024-01-30T06:42:14;2.00;69.80
9393;DHT22;4736;52.508;13.422;2024-01-30T06:45:18;2.00;69.80
9393;DHT22;4736;52.508;13.422;2024-01-30T06:48:21;2.00;70.20
9393;DHT22;4736;52.508;13.422;2024-01-30T06:51:24;1.90;70.10
9393;DHT22;4736;52.508;13.422;2024-01-30T06:54:27;1.90;70.10
9393;DHT22;4736;52.508;13.422;2024-01-30T06:57:31;1.90;70.30
9393;DHT22;4736;52.508;13.422;2024-01-30T07:00:35;1.90;70.50
9393;DHT22;4736;52.508;13.422;2024-01-30T07:03:38;1.90;70.30
9393;DHT22;4736;52.508;13.422;2024-01-30T07:06:41;2.00;70.40
9393;DHT22;4736;52.508;13.422;2024-01-30T07:09:45;2.00;70.30
9393;DHT22;4736;52.508;13.422;2024-01-30T07:12:50;2.00;70.40
9393;DHT22;4736;52.508;13.422;2024-01-30T07:15:54;2.00;70.40
9393;DHT22;4736;52.508;13.422;2024-01-30T07:18:57;2.00;70.30
9393;DHT22;4736;52.508;13.422;2024-01-30T07:22:01;2.10;70.20
9393;DHT22;4736;52.508;13.422;2024-01-30T07:25:06;2.10;70.10
9393;DHT22;4736;52.508;13.422;2024-01-30T07:28:11;2.10;70.20
9393;DHT22;4736;52.508;13.422;2024-01-30T07:31:16;2.20;70.10
9393;DHT22;4736;52.508;13.422;2024-01-30T07:34:22;2.30;70.10
9393;DHT22;4736;52.508;13.422;2024-01-30T07:37:26;2.30;69.90
9393;DHT22;4736;52.508;13.422;2024-01-30T07:40:30;2.40;69.70
9393;DHT22;4736;52.508;13.422;2024-01-30T07:43:37;2.40;69.60
9393;DHT22;4736;52.508;13.422;2024-01-30T07:46:41;2.40;69.50
9393;DHT22;4736;52.508;13.422;2024-01-30T07:49:44;2.40;69.50
9393;DHT22;4736;52.508;13.422;2024-01-30T07:52:47;2.50;69.30
9393;DHT22;4736;52.508;13.422;2024-01-30T07:55:53;2.50;69.10
9393;DHT22;4736;52.508;13.422;2024-01-30T07:58:57;2.60;69.20
9393;DHT22;4736;52.508;13.422;2024-01-30T08:02:00;2.70;69.10
9393;DHT22;4736;52.508;13.422;2024-01-30T08:05:04;2.80;68.80
9393;DHT22;4736;52.508;13.422;2024-01-30T08:08:07;2.90;68.30
9393;DHT22;4736;52.508;13.422;2024-01-30T08:11:12;2.90;68.20
9393;DHT22;4736;52.508;13.422;2024-01-30T08:14:18;2.90;68.00
9393;DHT22;4736;52.508;13.422;2024-01-30T08:17:21;2.90;68.30
9393;DHT22;4736;52.508;13.422;2024-01-30T08:20:25;2.90;68.30
9393;DHT22;4736;52.508;13.422;2024-01-30T08:23:28;3.00;68.20
9393;DHT22;4736;52.508;13.422;2024-01-30T08:26:31;3.00;68.30
9393;DHT22;4736;52.508;13.422;2024-01-30T08:29:36;3.00;68.30
9393;DHT22;4736;52.508;13.422;2024-01-30T08:32:39;3.10;68.10
9393;DHT22;4736;52.508;13.422;2024-01-30T08:35:42;3.10;67.90
9393;DHT22;4736;52.508;13.422;2024-01-30T08:38:45;3.10;67.70
9393;DHT22;4736;52.508;13.422;2024-01-30T08:41:49;3.30;67.50
9393;DHT22;4736;52.508;13.422;2024-01-30T08:44:53;3.30;67.50
9393;DHT22;4736;52.508;13.422;2024-01-30T08:47:57;3.50;66.90
9393;DHT22;4736;52.508;13.422;2024-01-30T08:51:01;3.60;66.40
9393;DHT22;4736;52.508;13.422;2024-01-30T08:54:04;3.80;66.20
9393;DHT22;4736;52.508;13.422;2024-01-30T08:57:07;3.90;66.00
9393;DHT22;4736;52.508;13.422;2024-01-30T09:00:13;4.00;66.00
9393;DHT22;4736;52.508;13.422;2024-01-30T09:03:17;4.10;65.90
9393;DHT22;4736;52.508;13.422;2024-01-30T09:06:20;4.30;65.20
9393;DHT22;4736;52.508;13.422;2024-01-30T09:09:24;4.50;64.00
9393;DHT22;4736;52.508;13.422;2024-01-30T09:12:27;4.70;63.00
9393;DHT22;4736;52.508;13.422;2024-01-30T09:15:32;4.80;62.80
9393;DHT22;4736;52.508;13.422;2024-01-30T09:18:35;5.00;62.20
9393;DHT22;4736;52.508;13.422;2024-01-30T09:21:38;4.90;61.90
9393;DHT22;4736;52.508;13.422;2024-01-30T09:24:42;4.70;62.60
9393;DHT22;4736;52.508;13.422;2024-01-30T09:27:46;4.70;62.70
9393;DHT22;4736;52.508;13.422;2024-01-30T09:30:50;4.70;62.70
9393;DHT22;4736;52.508;13.422;2024-01-30T09:33:53;4.50;62.90
9393;DHT22;4736;52.508;13.422;2024-01-30T09:36:57;4.70;62.40
9393;DHT22;4736;52.508;13.422;2024-01-30T09:40:01;4.80;62.30
9393;DHT22;4736;52.508;13.422;2024-01-30T09:43:04;4.90;62.30
9393;DHT22;4736;52.508;13.422;2024-01-30T09:46:12;5.00;62.20
9393;DHT22;4736;52.508;13.422;2024-01-30T09:49:16;5.00;61.90
9393;DHT22;4736;52.508;13.422;2024-01-30T09:52:22;5.00;61.90
9393;DHT22;4736;52.508;13.422;2024-01-30T09:55:25;4.90;62.00
9393;DHT22;4736;52.508;13.422;2024-01-30T09:58:29;5.00;62.40
9393;DHT22;4736;52.508;13.422;2024-01-30T10:01:34;5.10;62.00
9393;DHT22;4736;52.508;13.422;2024-01-30T10:04:38;5.10;61.50
9393;DHT22;4736;52.508;13.422;2024-01-30T10:07:52;5.30;61.30
9393;DHT22;4736;52.508;13.422;2024-01-30T10:10:56;5.50;60.90
9393;DHT22;4736;52.508;13.422;2024-01-30T10:14:00;5.60;60.40
9393;DHT22;4736;52.508;13.422;2024-01-30T10:17:06;5.70;60.40
9393;DHT22;4736;52.508;13.422;2024-01-30T10:20:22;5.80;59.60
9393;DHT22;4736;52.508;13.422;2024-01-30T10:23:29;5.90;59.40
9393;DHT22;4736;52.508;13.422;2024-01-30T10:26:38;6.00;59.60
9393;DHT22;4736;52.508;13.422;2024-01-30T10:29:41;6.00;58.70
9393;DHT22;4736;52.508;13.422;2024-01-30T10:32:46;6.00;58.20
9393;DHT22;4736;52.508;13.422;2024-01-30T10:35:50;6.00;58.00
9393;DHT22;4736;52.508;13.422;2024-01-30T10:38:55;6.10;58.00
9393;DHT22;4736;52.508;13.422;2024-01-30T10:42:04;6.10;58.50
9393;DHT22;4736;52.508;13.422;2024-01-30T10:45:09;6.20;57.80
9393;DHT22;4736;52.508;13.422;2024-01-30T10:48:18;6.30;57.20
9393;DHT22;4736;52.508;13.422;2024-01-30T10:51:27;6.30;57.40
9393;DHT22;4736;52.508;13.422;2024-01-30T10:54:32;6.30;57.40
9393;DHT22;4736;52.508;13.422;2024-01-30T10:57:37;6.30;57.20
9393;DHT22;4736;52.508;13.422;2024-01-30T11:00:41;6.30;57.10
9393;DHT22;4736;52.508;13.422;2024-01-30T11:03:46;6.30;57.10
9393;DHT22;4736;52.508;13.422;2024-01-30T11:06:49;6.40;57.20
9393;DHT22;4736;52.508;13.422;2024-01-30T11:09:54;6.60;57.00
9393;DHT22;4736;52.508;13.422;2024-01-30T11:13:10;6.70;56.50
9393;DHT22;4736;52.508;13.422;2024-01-30T11:16:41;6.90;56.40
9393;DHT22;4736;52.508;13.422;2024-01-30T11:20:00;6.90;56.40
9393;DHT22;4736;52.508;13.422;2024-01-30T11:23:05;6.90;56.20
9393;DHT22;4736;52.508;13.422;2024-01-30T11:26:10;6.90;56.10
9393;DHT22;4736;52.508;13.422;2024-01-30T11:29:14;6.80;56.70
9393;DHT22;4736;52.508;13.422;2024-01-30T11:32:22;6.80;56.60
9393;DHT22;4736;52.508;13.422;2024-01-30T11:35:29;6.80;56.70
9393;DHT22;4736;52.508;13.422;2024-01-30T11:38:33;6.80;56.50
9393;DHT22;4736;52.508;13.422;2024-01-30T11:41:37;6.80;56.70
9393;DHT22;4736;52.508;13.422;2024-01-30T11:44:41;6.90;56.80
9393;DHT22;4736;52.508;13.422;2024-01-30T11:47:48;7.00;56.80
9393;DHT22;4736;52.508;13.422;2024-01-30T11:50:52;7.10;57.00
9393;DHT22;4736;52.508;13.422;2024-01-30T11:53:55;7.00;57.00
9393;DHT22;4736;52.508;13.422;2024-01-30T11:56:58;7.20;56.80
9393;DHT22;4736;52.508;13.422;2024-01-30T12:00:02;7.20;56.50
9393;DHT22;4736;52.508;13.422;2024-01-30T12:03:11;7.10;56.80
9393;DHT22;4736;52.508;13.422;2024-01-30T12:06:16;7.20;57.00
9393;DHT22;4736;52.508;13.422;2024-01-30T12:09:20;7.30;56.40
9393;DHT22;4736;52.508;13.422;2024-01-30T12:12:24;7.40;56.40
9393;DHT22;4736;52.508;13.422;2024-01-30T12:15:28;7.50;56.40
9393;DHT22;4736;52.508;13.422;2024-01-30T12:18:31;7.50;55.90
9393;DHT22;4736;52.508;13.422;2024-01-30T12:21:38;7.50;56.10
9393;DHT22;4736;52.508;13.422;2024-01-30T12:24:41;7.50;56.40
9393;DHT22;4736;52.508;13.422;2024-01-30T12:27:45;7.60;56.30
9393;DHT22;4736;52.508;13.422;2024-01-30T12:30:55;7.60;56.50
9393;DHT22;4736;52.508;13.422;2024-01-30T12:34:00;7.60;56.40
9393;DHT22;4736;52.508;13.422;2024-01-30T12:37:05;7.50;56.80
9393;DHT22;4736;52.508;13.422;2024-01-30T12:40:11;7.50;56.80
9393;DHT22;4736;52.508;13.422;2024-01-30T12:43:17;7.60;56.60
9393;DHT22;4736;52.508;13.422;2024-01-30T12:46:34;7.70;56.60
9393;DHT22;4736;52.508;13.422;2024-01-30T12:49:37;7.80;56.90
9393;DHT22;4736;52.508;13.422;2024-01-30T12:52:43;7.80;56.80
9393;DHT22;4736;52.508;13.422;2024-01-30T12:55:50;7.80;57.00
9393;DHT22;4736;52.508;13.422;2024-01-30T12:58:55;7.80;56.90
9393;DHT22;4736;52.508;13.422;2024-01-30T13:01:59;7.80;57.30
9393;DHT22;4736;52.508;13.422;2024-01-30T13:05:03;7.90;57.20
9393;DHT22;4736;52.508;13.422;2024-01-30T13:08:08;8.00;57.00
9393;DHT22;4736;52.508;13.422;2024-01-30T13:11:11;7.80;57.50
9393;DHT22;4736;52.508;13.422;2024-01-30T13:14:22;7.80;57.60
9393;DHT22;4736;52.508;13.422;2024-01-30T13:17:25;7.80;57.90
9393;DHT22;4736;52.508;13.422;2024-01-30T13:20:28;7.80;57.90
9393;DHT22;4736;52.508;13.422;2024-01-30T13:23:33;7.80;58.10
9393;DHT22;4736;52.508;13.422;2024-01-30T13:26:36;7.90;57.90
9393;DHT22;4736;52.508;13.422;2024-01-30T13:29:40;7.80;58.40
9393;DHT22;4736;52.508;13.422;2024-01-30T13:32:43;7.80;58.30
9393;DHT22;4736;52.508;13.422;2024-01-30T13:35:48;7.80;58.60
9393;DHT22;4736;52.508;13.422;2024-01-30T13:38:52;8.00;58.40
9393;DHT22;4736;52.508;13.422;2024-01-30T13:41:55;8.00;58.30
9393;DHT22;4736;52.508;13.422;2024-01-30T13:44:59;8.00;58.20
9393;DHT22;4736;52.508;13.422;2024-01-30T13:48:03;8.00;58.30
9393;DHT22;4736;52.508;13.422;2024-01-30T13:51:06;8.00;58.50
9393;DHT22;4736;52.508;13.422;2024-01-30T13:54:10;8.00;58.70
9393;DHT22;4736;52.508;13.422;2024-01-30T13:57:14;8.00;58.70
9393;DHT22;4736;52.508;13.422;2024-01-30T14:00:17;8.10;58.70
9393;DHT22;4736;52.508;13.422;2024-01-30T14:03:20;8.10;58.90
9393;DHT22;4736;52.508;13.422;2024-01-30T14:06:23;8.00;58.80
9393;DHT22;4736;52.508;13.422;2024-01-30T14:09:28;8.00;59.10
9393;DHT22;4736;52.508;13.422;2024-01-30T14:12:31;8.00;59.40
9393;DHT22;4736;52.508;13.422;2024-01-30T14:15:34;8.00;59.40
9393;DHT22;4736;52.508;13.422;2024-01-30T14:18:37;8.00;59.40
9393;DHT22;4736;52.508;13.422;2024-01-30T14:21:40;8.00;59.30
9393;DHT22;4736;52.508;13.422;2024-01-30T14:24:46;8.00;59.50
9393;DHT22;4736;52.508;13.422;2024-01-30T14:27:49;8.00;59.70
9393;DHT22;4736;52.508;13.422;2024-01-30T14:30:53;8.00;59.70
9393;DHT22;4736;52.508;13.422;2024-01-30T14:33:56;8.00;59.90
9393;DHT22;4736;52.508;13.422;2024-01-30T14:36:59;8.00;60.00
9393;DHT22;4736;52.508;13.422;2024-01-30T14:40:05;8.00;60.30
9393;DHT22;4736;52.508;13.422;2024-01-30T14:43:09;8.00;60.10
9393;DHT22;4736;52.508;13.422;2024-01-30T14:46:12;8.00;60.20
9393;DHT22;4736;52.508;13.422;2024-01-30T14:49:15;8.10;60.10
9393;DHT22;4736;52.508;13.422;2024-01-30T14:52:19;8.00;60.40
9393;DHT22;4736;52.508;13.422;2024-01-30T14:55:24;7.90;60.70
9393;DHT22;4736;52.508;13.422;2024-01-30T14:58:27;8.00;60.50
9393;DHT22;4736;52.508;13.422;2024-01-30T15:01:30;8.00;60.50
9393;DHT22;4736;52.508;13.422;2024-01-30T15:04:33;8.00;60.50
9393;DHT22;4736;52.508;13.422;2024-01-30T15:07:37;7.90;60.90
9393;DHT22;4736;52.508;13.422;2024-01-30T15:10:43;7.80;61.10
9393;DHT22;4736;52.508;13.422;2024-01-30T15:13:48;7.80;61.30
9393;DHT22;4736;52.508;13.422;2024-01-30T15:16:51;7.80;61.50
9393;DHT22;4736;52.508;13.422;2024-01-30T15:19:54;7.70;61.50
9393;DHT22;4736;52.508;13.422;2024-01-30T15:22:57;7.70;61.80
9393;DHT22;4736;52.508;13.422;2024-01-30T15:26:02;7.60;62.00
9393;DHT22;4736;52.508;13.422;2024-01-30T15:29:05;7.50;62.20
9393;DHT22;4736;52.508;13.422;2024-01-30T15:32:08;7.50;62.20
9393;DHT22;4736;52.508;13.422;2024-01-30T15:35:12;7.50;62.50
9393;DHT22;4736;52.508;13.422;2024-01-30T15:38:15;7.40;62.50
9393;DHT22;4736;52.508;13.422;2024-01-30T15:41:20;7.30;62.60
9393;DHT22;4736;52.508;13.422;2024-01-30T15:44:24;7.30;62.80
9393;DHT22;4736;52.508;13.422;2024-01-30T15:47:27;7.30;62.70
9393;DHT22;4736;52.508;13.422;2024-01-30T15:50:30;7.20;62.80
9393;DHT22;4736;52.508;13.422;2024-01-30T15:53:33;7.20;63.00
9393;DHT22;4736;52.508;13.422;2024-01-30T15:56:38;7.20;63.00
9393;DHT22;4736;52.508;13.422;2024-01-30T15:59:42;7.10;63.40
9393;DHT22;4736;52.508;13.422;2024-01-30T16:02:45;7.00;63.40
9393;DHT22;4736;52.508;13.422;2024-01-30T16:05:48;7.00;63.30
9393;DHT22;4736;52.508;13.422;2024-01-30T16:08:51;7.00;63.40
9393;DHT22;4736;52.508;13.422;2024-01-30T16:11:58;7.00;63.70
9393;DHT22;4736;52.508;13.422;2024-01-30T16:15:02;6.90;63.80
9393;DHT22;4736;52.508;13.422;2024-01-30T16:18:05;7.00;64.00
9393;DHT22;4736;52.508;13.422;2024-01-30T16:21:08;6.90;64.10
9393;DHT22;4736;52.508;13.422;2024-01-30T16:24:14;6.80;64.10
9393;DHT22;4736;52.508;13.422;2024-01-30T16:27:18;6.80;64.40
9393;DHT22;4736;52.508;13.422;2024-01-30T16:30:22;6.90;64.50
9393;DHT22;4736;52.508;13.422;2024-01-30T16:33:25;6.90;64.60
9393;DHT22;4736;52.508;13.422;2024-01-30T16:36:28;6.90;64.40
9393;DHT22;4736;52.508;13.422;2024-01-30T16:39:31;6.80;64.90
9393;DHT22;4736;52.508;13.422;2024-01-30T16:42:35;6.90;64.70
9393;DHT22;4736;52.508;13.422;2024-01-30T16:45:39;6.90;64.60
9393;DHT22;4736;52.508;13.422;2024-01-30T16:48:42;6.90;64.50
9393;DHT22;4736;52.508;13.422;2024-01-30T16:51:46;6.90;64.60
9393;DHT22;4736;52.508;13.422;2024-01-30T16:54:49;6.90;64.90
9393;DHT22;4736;52.508;13.422;2024-01-30T16:57:54;6.80;65.10
9393;DHT22;4736;52.508;13.422;2024-01-30T17:00:57;6.80;65.20
9393;DHT22;4736;52.508;13.422;2024-01-30T17:04:00;6.80;65.20
9393;DHT22;4736;52.508;13.422;2024-01-30T17:07:03;6.80;65.30
9393;DHT22;4736;52.508;13.422;2024-01-30T17:10:08;6.70;65.40
9393;DHT22;4736;52.508;13.422;2024-01-30T17:13:22;6.70;65.70
9393;DHT22;4736;52.508;13.422;2024-01-30T17:16:27;6.70;65.60
9393;DHT22;4736;52.508;13.422;2024-01-30T17:19:35;6.60;65.80
9393;DHT22;4736;52.508;13.422;2024-01-30T17:22:41;6.70;66.00
9393;DHT22;4736;52.508;13.422;2024-01-30T17:25:48;6.70;65.90
9393;DHT22;4736;52.508;13.422;2024-01-30T17:28:53;6.70;66.10
9393;DHT22;4736;52.508;13.422;2024-01-30T17:31:56;6.70;66.00
9393;DHT22;4736;52.508;13.422;2024-01-30T17:35:00;6.70;66.20
9393;DHT22;4736;52.508;13.422;2024-01-30T17:38:03;6.70;66.30
9393;DHT22;4736;52.508;13.422;2024-01-30T17:41:06;6.70;66.30
9393;DHT22;4736;52.508;13.422;2024-01-30T17:44:15;6.70;66.40
9393;DHT22;4736;52.508;13.422;2024-01-30T17:47:19;6.70;66.70
9393;DHT22;4736;52.508;13.422;2024-01-30T17:50:22;6.70;66.70
9393;DHT22;4736;52.508;13.422;2024-01-30T17:53:25;6.70;66.70
9393;DHT22;4736;52.508;13.422;2024-01-30T17:56:28;6.60;66.80
9393;DHT22;4736;52.508;13.422;2024-01-30T17:59:36;6.60;66.90
9393;DHT22;4736;52.508;13.422;2024-01-30T18:02:41;6.60;67.20
9393;DHT22;4736;52.508;13.422;2024-01-30T18:05:44;6.60;67.20
9393;DHT22;4736;52.508;13.422;2024-01-30T18:08:47;6.60;67.20
9393;DHT22;4736;52.508;13.422;2024-01-30T18:11:51;6.60;67.40
9393;DHT22;4736;52.508;13.422;2024-01-30T18:14:55;6.60;67.40
9393;DHT22;4736;52.508;13.422;2024-01-30T18:17:58;6.70;67.40
9393;DHT22;4736;52.508;13.422;2024-01-30T18:21:02;6.60;67.40
9393;DHT22;4736;52.508;13.422;2024-01-30T18:24:05;6.60;67.50
9393;DHT22;4736;52.508;13.422;2024-01-30T18:27:08;6.70;67.60
9393;DHT22;4736;52.508;13.422;2024-01-30T18:30:14;6.70;67.70
9393;DHT22;4736;52.508;13.422;2024-01-30T18:33:17;6.70;67.70
9393;DHT22;4736;52.508;13.422;2024-01-30T18:36:21;6.80;67.80
9393;DHT22;4736;52.508;13.422;2024-01-30T18:39:24;6.80;67.80
9393;DHT22;4736;52.508;13.422;2024-01-30T18:42:27;6.80;68.00
9393;DHT22;4736;52.508;13.422;2024-01-30T18:45:32;6.90;67.80
9393;DHT22;4736;52.508;13.422;2024-01-30T18:48:36;7.00;67.80
9393;DHT22;4736;52.508;13.422;2024-01-30T18:51:39;7.00;67.60
9393;DHT22;4736;52.508;13.422;2024-01-30T18:54:43;7.00;67.80
9393;DHT22;4736;52.508;13.422;2024-01-30T18:57:46;7.10;67.80
9393;DHT22;4736;52.508;13.422;2024-01-30T19:00:51;7.10;67.70
9393;DHT22;4736;52.508;13.422;2024-01-30T19:03:54;7.10;67.90
9393;DHT22;4736;52.508;13.422;2024-01-30T19:06:58;7.20;68.00
9393;DHT22;4736;52.508;13.422;2024-01-30T19:10:01;7.30;67.80
9393;DHT22;4736;52.508;13.422;2024-01-30T19:13:04;7.40;67.50
9393;DHT22;4736;52.508;13.422;2024-01-30T19:16:09;7.50;67.50
9393;DHT22;4736;52.508;13.422;2024-01-30T19:19:12;7.50;67.60
9393;DHT22;4736;52.508;13.422;2024-01-30T19:22:15;7.50;67.80
9393;DHT22;4736;52.508;13.422;2024-01-30T19:25:18;7.50;67.90
9393;DHT22;4736;52.508;13.422;2024-01-30T19:28:21;7.50;68.00
9393;DHT22;4736;52.508;13.422;2024-01-30T19:31:26;7.50;68.20
9393;DHT22;4736;52.508;13.422;2024-01-30T19:34:29;7.50;68.10
9393;DHT22;4736;52.508;13.422;2024-01-30T19:37:33;7.50;68.00
9393;DHT22;4736;52.508;13.422;2024-01-30T19:40:37;7.60;68.00
9393;DHT22;4736;52.508;13.422;2024-01-30T19:43:40;7.50;68.20
9393;DHT22;4736;52.508;13.422;2024-01-30T19:46:45;7.50;68.30
9393;DHT22;4736;52.508;13.422;2024-01-30T19:49:48;7.50;68.50
9393;DHT22;4736;52.508;13.422;2024-01-30T19:52:51;7.60;68.60
9393;DHT22;4736;52.508;13.422;2024-01-30T19:55:55;7.60;68.60
9393;DHT22;4736;52.508;13.422;2024-01-30T19:58:58;7.60;68.80
9393;DHT22;4736;52.508;13.422;2024-01-30T20:02:02;7.70;68.60